Time;durP1;ratioP1;P1;durP2;ratioP2;P2;SDS_P1;SDS_P2;PMS_P1;PMS_P2;Temp;Humidity;BMP_temperature;BMP_pressure;BME280_temperature;BME280_humidity;BME280_pressure;Samples;Min_cycle;Max_cycle;Signal;HPM_P1;HPM_P2
2022/05/28 00:01:00;;;;;;;;;;;;;;;;;;2105980;28;19969;-44
2022/05/28 00:02:02;;;;;;;;;;;;;;;;;;2106093;28;19920;-44
2022/05/28 00:03:03;;;;;;;;;;;;;;;;;;2106052;28;20471;-45
2022/05/28 00:04:05;;;;;;;;;;;;;;;;;;2106053;28;19923;-44
2022/05/28 00:05:05;;;;;;;;;;;;;;;;;;2105970;28;20429;-45
2022/05/28 00:06:06;;;;;;;;;;;;;;;;;;2105998;28;19920;-45
2022/05/28 00:07:08;;;;;;;;;;;;;;;;;;2106033;28;19920;-45
2022/05/28 00:08:09;;;;;;;;;;;;;;;;;;2105897;28;20012;-44
2022/05/28 00:09:09;;;;;;;;;;;;;;;;;;2106046;28;19920;-44
2022/05/28 00:10:10;;;;;;;;;;;;;;;;;;2105939;28;20424;-44
2022/05/28 00:11:11;;;;;;;;;;;;;;;;;;2106114;28;20010;-44
2022/05/28 00:12:12;;;;;;;;;;;;;;;;;;2105712;28;19981;-45
2022/05/28 00:13:13;;;;;;;;;;;;;;;;;;2106018;28;19924;-44
2022/05/28 00:14:14;;;;;;;;;;;;;;;;;;2105953;28;20280;-45
2022/05/28 00:15:15;;;;;;;;;;;;;;;;;;2105934;28;20304;-44
2022/05/28 00:16:16;;;;;;;;;;;;;;;;;;2105988;28;19971;-45
2022/05/28 00:17:17;;;;;;;;;;;;;;;;;;2105955;28;19920;-45
2022/05/28 00:18:18;;;;;;;;;;;;;;;;;;2106062;28;19920;-45
2022/05/28 00:19:19;;;;;;;;;;;;;;;;;;2097675;28;19920;-46
2022/05/28 00:20:20;;;;;;;;;;;;;;;;;;2097517;28;19927;-45
2022/05/28 00:21:21;;;;;;;;;;;;;;;;;;2097486;28;19921;-44
2022/05/28 00:22:21;;;;;;;;;;;;;;;;;;2097653;28;19924;-44
2022/05/28 00:23:23;;;;;;;;;;;;;;;;;;2097520;28;19999;-44
2022/05/28 00:24:24;;;;;;;;;;;;;;;;;;2097570;28;20040;-45
2022/05/28 00:25:25;;;;;;;;;;;;;;;;;;2097729;28;20352;-44
2022/05/28 00:26:26;;;;;;;;;;;;;;;;;;2098988;28;19920;-45
2022/05/28 00:27:28;;;;;;;;;;;;;;;;;;2099113;28;20209;-44
2022/05/28 00:28:29;;;;;;;;;;;;;;;;;;2098908;28;20452;-44
2022/05/28 00:29:30;;;;;;;;;;;;;;;;;;2099032;28;19955;-44
2022/05/28 00:30:30;;;;;;;;;;;;;;;;;;2098932;28;19920;-44
2022/05/28 00:31:31;;;;;;;;;;;;;;;;;;2099101;28;19920;-45
2022/05/28 00:32:32;;;;;;;;;;;;;;;;;;2098958;28;19928;-45
2022/05/28 00:33:33;;;;;;;;;;;;;;;;;;2098947;28;20359;-44
2022/05/28 00:34:34;;;;;;;;;;;;;;;;;;2098931;28;20373;-45
2022/05/28 00:35:36;;;;;;;;;;;;;;;;;;2099065;28;19920;-45
2022/05/28 00:36:36;;;;;;;;;;;;;;;;;;2098920;28;19924;-44
2022/05/28 00:37:37;;;;;;;;;;;;;;;;;;2099010;28;19920;-44
2022/05/28 00:38:38;;;;;;;;;;;;;;;;;;2098828;28;20023;-44
2022/05/28 00:39:39;;;;;;;;;;;;;;;;;;2099041;28;19959;-44
2022/05/28 00:40:40;;;;;;;;;;;;;;;;;;2098931;28;19920;-44
2022/05/28 00:41:41;;;;;;;;;;;;;;;;;;2098835;28;19956;-44
2022/05/28 00:42:41;;;;;;;;;;;;;;;;;;2099143;28;20015;-44
2022/05/28 00:43:43;;;;;;;;;;;;;;;;;;2098864;28;19920;-44
2022/05/28 00:44:43;;;;;;;;;;;;;;;;;;2098913;28;19924;-44
2022/05/28 00:45:44;;;;;;;;;;;;;;;;;;2098925;28;19964;-44
2022/05/28 00:46:46;;;;;;;;;;;;;;;;;;2103523;28;19920;-44
2022/05/28 00:47:47;;;;;;;;;;;;;;;;;;2107318;28;19930;-44
2022/05/28 00:48:48;;;;;;;;;;;;;;;;;;2107062;28;20400;-44
2022/05/28 00:49:49;;;;;;;;;;;;;;;;;;2107342;28;19954;-44
2022/05/28 00:50:49;;;;;;;;;;;;;;;;;;2107237;28;20008;-45
2022/05/28 00:51:50;;;;;;;;;;;;;;;;;;2107336;28;19942;-45
2022/05/28 00:52:51;;;;;;;;;;;;;;;;;;2107169;28;20021;-45
2022/05/28 00:53:52;;;;;;;;;;;;;;;;;;2107150;28;19920;-45
2022/05/28 00:54:53;;;;;;;;;;;;;;;;;;2107236;28;19920;-45
2022/05/28 00:55:54;;;;;;;;;;;;;;;;;;2107185;28;19932;-44
2022/05/28 00:56:54;;;;;;;;;;;;;;;;;;2107242;28;19920;-44
2022/05/28 00:57:55;;;;;;;;;;;;;;;;;;2107170;28;19920;-45
2022/05/28 00:58:56;;;;;;;;;;;;;;;;;;2107050;28;20385;-46
2022/05/28 00:59:58;;;;;;;;;;;;;;;;;;2107310;28;19951;-44
2022/05/28 01:00:59;;;;;;;;;;;;;;;;;;2107257;28;20007;-44
2022/05/28 01:02:00;;;;;;;;;;;;;;;;;;2107103;28;20326;-44
2022/05/28 01:03:00;;;;;;;;;;;;;;;;;;2107112;28;20069;-44
2022/05/28 01:04:01;;;;;;;;;;;;;;;;;;2107015;28;19923;-45
2022/05/28 01:05:02;;;;;;;;;;;;;;;;;;2107261;28;19924;-45
2022/05/28 01:06:05;;;;;;;;;;;;;;;;;;2107168;28;19969;-45
2022/05/28 01:07:06;;;;;;;;;;;;;;;;;;2107097;28;20406;-44
2022/05/28 01:08:07;;;;;;;;;;;;;;;;;;2107002;28;19942;-45
2022/05/28 01:09:08;;;;;;;;;;;;;;;;;;2106992;28;19920;-44
2022/05/28 01:10:09;;;;;;;;;;;;;;;;;;2107192;28;19920;-45
2022/05/28 01:11:10;;;;;;;;;;;;;;;;;;2107080;28;19924;-44
2022/05/28 01:12:11;;;;;;;;;;;;;;;;;;2107316;28;20292;-44
2022/05/28 01:13:12;;;;;;;;;;;;;;;;;;2107050;28;19920;-45
2022/05/28 01:14:13;;;;;;;;;;;;;;;;;;2106940;28;20377;-44
2022/05/28 01:15:14;;;;;;;;;;;;;;;;;;2107043;28;19923;-45
2022/05/28 01:16:15;;;;;;;;;;;;;;;;;;2107155;28;19923;-44
2022/05/28 01:17:16;;;;;;;;;;;;;;;;;;2106974;28;19935;-45
2022/05/28 01:18:17;;;;;;;;;;;;;;;;;;2107134;28;19927;-44
2022/05/28 01:19:18;;;;;;;;;;;;;;;;;;2106824;28;20322;-44
2022/05/28 01:20:18;;;;;;;;;;;;;;;;;;2106892;28;19939;-45
2022/05/28 01:21:19;;;;;;;;;;;;;;;;;;2107147;28;20013;-44
2022/05/28 01:22:20;;;;;;;;;;;;;;;;;;2106908;28;19920;-45
2022/05/28 01:23:21;;;;;;;;;;;;;;;;;;2107135;28;19927;-44
2022/05/28 01:24:22;;;;;;;;;;;;;;;;;;2106955;28;19959;-45
2022/05/28 01:25:23;;;;;;;;;;;;;;;;;;2106945;28;20372;-45
2022/05/28 01:26:23;;;;;;;;;;;;;;;;;;2107015;28;19920;-44
2022/05/28 01:27:24;;;;;;;;;;;;;;;;;;2106941;28;19919;-44
2022/05/28 01:28:25;;;;;;;;;;;;;;;;;;2106973;28;19920;-44
2022/05/28 01:29:26;;;;;;;;;;;;;;;;;;2107017;28;19924;-45
2022/05/28 01:30:27;;;;;;;;;;;;;;;;;;2106887;28;19930;-45
2022/05/28 01:31:28;;;;;;;;;;;;;;;;;;2107018;28;19920;-45
2022/05/28 01:32:29;;;;;;;;;;;;;;;;;;2106935;28;19920;-45
2022/05/28 01:33:30;;;;;;;;;;;;;;;;;;2106872;28;19928;-45
2022/05/28 01:34:30;;;;;;;;;;;;;;;;;;2106964;28;19920;-45
2022/05/28 01:35:31;;;;;;;;;;;;;;;;;;2106917;28;19942;-45
2022/05/28 01:36:32;;;;;;;;;;;;;;;;;;2106890;28;19920;-45
2022/05/28 01:37:33;;;;;;;;;;;;;;;;;;2105998;28;19920;-47
2022/05/28 01:38:34;;;;;;;;;;;;;;;;;;2106922;28;19924;-45
2022/05/28 01:39:35;;;;;;;;;;;;;;;;;;2106647;28;19927;-46
2022/05/28 01:40:35;;;;;;;;;;;;;;;;;;2107088;28;20492;-45
2022/05/28 01:41:36;;;;;;;;;;;;;;;;;;2106885;28;19962;-44
2022/05/28 01:42:37;;;;;;;;;;;;;;;;;;2106700;28;20427;-44
2022/05/28 01:43:38;;;;;;;;;;;;;;;;;;2106780;28;19959;-45
2022/05/28 01:44:39;;;;;;;;;;;;;;;;;;2106837;28;19919;-45
2022/05/28 01:45:40;;;;;;;;;;;;;;;;;;2106826;28;20045;-45
2022/05/28 01:46:41;;;;;;;;;;;;;;;;;;2106870;28;20224;-45
2022/05/28 01:47:42;;;;;;;;;;;;;;;;;;2106979;28;19920;-45
2022/05/28 01:48:43;;;;;;;;;;;;;;;;;;2106787;28;19926;-45
2022/05/28 01:49:44;;;;;;;;;;;;;;;;;;2106891;28;20340;-45
2022/05/28 01:50:45;;;;;;;;;;;;;;;;;;2107095;28;20010;-46
2022/05/28 01:51:46;;;;;;;;;;;;;;;;;;2106818;28;20356;-46
2022/05/28 01:52:46;;;;;;;;;;;;;;;;;;2106972;28;20155;-45
2022/05/28 01:55:07;;;;;;;;;;;;;;;;;;2106894;28;19999;-45
2022/05/28 01:56:07;;;;;;;;;;;;;;;;;;2106773;28;19920;-45
2022/05/28 01:57:08;;;;;;;;;;;;;;;;;;2106925;28;19966;-45
2022/05/28 01:58:09;;;;;;;;;;;;;;;;;;2106767;28;20282;-45
2022/05/28 01:59:10;;;;;;;;;;;;;;;;;;2106679;28;19920;-45
2022/05/28 02:00:11;;;;;;;;;;;;;;;;;;2106713;28;19934;-45
2022/05/28 02:01:12;;;;;;;;;;;;;;;;;;2106988;28;20562;-45
2022/05/28 02:02:12;;;;;;;;;;;;;;;;;;2106804;28;19924;-46
2022/05/28 02:03:13;;;;;;;;;;;;;;;;;;2106883;28;19959;-46
2022/05/28 02:04:14;;;;;;;;;;;;;;;;;;2106437;28;19989;-45
2022/05/28 02:05:15;;;;;;;;;;;;;;;;;;2106859;28;19926;-45
2022/05/28 02:06:16;;;;;;;;;;;;;;;;;;2106849;28;20283;-45
2022/05/28 02:07:17;;;;;;;;;;;;;;;;;;2106703;28;19927;-45
2022/05/28 02:08:18;;;;;;;;;;;;;;;;;;2106732;28;19920;-45
2022/05/28 02:09:19;;;;;;;;;;;;;;;;;;2106615;28;19967;-45
2022/05/28 02:10:20;;;;;;;;;;;;;;;;;;2106764;28;19920;-45
2022/05/28 02:11:21;;;;;;;;;;;;;;;;;;2106622;28;19959;-45
2022/05/28 02:12:21;;;;;;;;;;;;;;;;;;2106795;28;19920;-45
2022/05/28 02:13:22;;;;;;;;;;;;;;;;;;2106650;28;20277;-45
2022/05/28 02:14:23;;;;;;;;;;;;;;;;;;2106572;28;19920;-45
2022/05/28 02:15:24;;;;;;;;;;;;;;;;;;2106745;28;20381;-45
2022/05/28 02:16:25;;;;;;;;;;;;;;;;;;2105984;28;19931;-46
2022/05/28 02:17:26;;;;;;;;;;;;;;;;;;2106642;28;20395;-45
2022/05/28 02:18:27;;;;;;;;;;;;;;;;;;2105791;28;19920;-45
2022/05/28 02:19:27;;;;;;;;;;;;;;;;;;2098188;28;19973;-45
2022/05/28 02:20:28;;;;;;;;;;;;;;;;;;2098260;28;20162;-45
2022/05/28 02:21:49;;;;;;;;;;;;;;;;;;2098306;28;19920;-44
2022/05/28 02:22:50;;;;;;;;;;;;;;;;;;2098243;28;19920;-45
2022/05/28 02:23:51;;;;;;;;;;;;;;;;;;2098167;28;20020;-45
2022/05/28 02:24:52;;;;;;;;;;;;;;;;;;2098206;28;19959;-45
2022/05/28 02:25:53;;;;;;;;;;;;;;;;;;2098367;28;19959;-45
2022/05/28 02:26:53;;;;;;;;;;;;;;;;;;2098245;28;19924;-45
2022/05/28 02:27:54;;;;;;;;;;;;;;;;;;2098362;28;20011;-45
2022/05/28 02:28:55;;;;;;;;;;;;;;;;;;2098166;28;19924;-48
2022/05/28 02:29:56;;;;;;;;;;;;;;;;;;2098161;28;19951;-45
2022/05/28 02:31:02;;;;;;;;;;;;;;;;;;2098344;28;20007;-45
2022/05/28 02:32:03;;;;;;;;;;;;;;;;;;2098199;28;20003;-45
2022/05/28 02:33:03;;;;;;;;;;;;;;;;;;2098250;28;19931;-45
2022/05/28 02:34:04;;;;;;;;;;;;;;;;;;2098252;28;19964;-45
2022/05/28 02:35:05;;;;;;;;;;;;;;;;;;2098326;28;20003;-45
2022/05/28 02:36:06;;;;;;;;;;;;;;;;;;2098133;28;19920;-45
2022/05/28 02:37:07;;;;;;;;;;;;;;;;;;2098279;28;20007;-45
2022/05/28 02:38:08;;;;;;;;;;;;;;;;;;2098249;28;19920;-45
2022/05/28 02:39:09;;;;;;;;;;;;;;;;;;2101910;28;20357;-45
2022/05/28 02:40:09;;;;;;;;;;;;;;;;;;2106380;28;19920;-45
2022/05/28 02:41:10;;;;;;;;;;;;;;;;;;2106449;28;20360;-45
2022/05/28 02:42:11;;;;;;;;;;;;;;;;;;2106617;28;19920;-45
2022/05/28 02:43:12;;;;;;;;;;;;;;;;;;2106456;28;19953;-45
2022/05/28 02:44:13;;;;;;;;;;;;;;;;;;2106552;28;19920;-45
2022/05/28 02:45:14;;;;;;;;;;;;;;;;;;2106440;28;19923;-45
2022/05/28 02:46:15;;;;;;;;;;;;;;;;;;2106456;28;19920;-45
2022/05/28 02:47:16;;;;;;;;;;;;;;;;;;2106522;28;19927;-45
2022/05/28 02:48:17;;;;;;;;;;;;;;;;;;2106279;28;19985;-45
2022/05/28 02:49:18;;;;;;;;;;;;;;;;;;2106432;28;19920;-46
2022/05/28 02:50:19;;;;;;;;;;;;;;;;;;2106418;28;19989;-46
2022/05/28 02:51:20;;;;;;;;;;;;;;;;;;2106550;28;19920;-45
2022/05/28 02:52:20;;;;;;;;;;;;;;;;;;2106593;28;19927;-45
2022/05/28 02:53:21;;;;;;;;;;;;;;;;;;2106410;28;19924;-45
2022/05/28 02:54:22;;;;;;;;;;;;;;;;;;2106534;28;19920;-45
2022/05/28 02:55:23;;;;;;;;;;;;;;;;;;2106512;28;19920;-45
2022/05/28 02:56:24;;;;;;;;;;;;;;;;;;2106475;28;19920;-45
2022/05/28 02:57:25;;;;;;;;;;;;;;;;;;2106381;28;19927;-46
2022/05/28 02:58:26;;;;;;;;;;;;;;;;;;2106400;28;19919;-45
2022/05/28 02:59:27;;;;;;;;;;;;;;;;;;2106598;28;19989;-45
2022/05/28 03:00:27;;;;;;;;;;;;;;;;;;2106196;28;19969;-45
2022/05/28 03:01:28;;;;;;;;;;;;;;;;;;2106468;28;19920;-45
2022/05/28 03:02:29;;;;;;;;;;;;;;;;;;2106477;28;20174;-45
2022/05/28 03:03:30;;;;;;;;;;;;;;;;;;2106366;28;19931;-45
2022/05/28 03:04:31;;;;;;;;;;;;;;;;;;2106430;28;19927;-45
2022/05/28 03:05:32;;;;;;;;;;;;;;;;;;2106313;28;20400;-45
2022/05/28 03:06:33;;;;;;;;;;;;;;;;;;2106321;28;20440;-45
2022/05/28 03:07:34;;;;;;;;;;;;;;;;;;2106359;28;19959;-45
2022/05/28 03:08:35;;;;;;;;;;;;;;;;;;2106255;28;20023;-45
2022/05/28 03:09:36;;;;;;;;;;;;;;;;;;2106279;28;20396;-45
2022/05/28 03:10:36;;;;;;;;;;;;;;;;;;2106239;28;19924;-45
2022/05/28 03:11:37;;;;;;;;;;;;;;;;;;2106538;28;20372;-45
2022/05/28 03:12:38;;;;;;;;;;;;;;;;;;2106198;28;19928;-45
2022/05/28 03:13:40;;;;;;;;;;;;;;;;;;2106186;28;20499;-45
2022/05/28 03:14:40;;;;;;;;;;;;;;;;;;2106277;28;20365;-45
2022/05/28 03:15:41;;;;;;;;;;;;;;;;;;2106395;28;20009;-45
2022/05/28 03:16:42;;;;;;;;;;;;;;;;;;2106537;28;20140;-62
2022/05/28 03:17:43;;;;;;;;;;;;;;;;;;2106304;28;20317;-62
2022/05/28 03:18:44;;;;;;;;;;;;;;;;;;2102983;28;19931;-62
2022/05/28 03:19:45;;;;;;;;;;;;;;;;;;2097897;28;19993;-62
2022/05/28 03:20:45;;;;;;;;;;;;;;;;;;2098119;28;19920;-45
2022/05/28 03:21:46;;;;;;;;;;;;;;;;;;2097994;28;19924;-45
2022/05/28 03:22:47;;;;;;;;;;;;;;;;;;2097820;28;19969;-45
2022/05/28 03:23:48;;;;;;;;;;;;;;;;;;2097805;28;19978;-45
2022/05/28 03:24:49;;;;;;;;;;;;;;;;;;2097984;28;20038;-45
2022/05/28 03:25:50;;;;;;;;;;;;;;;;;;2097860;28;19921;-45
2022/05/28 03:26:52;;;;;;;;;;;;;;;;;;2097916;28;20337;-45
2022/05/28 03:27:53;;;;;;;;;;;;;;;;;;2097753;28;20038;-45
2022/05/28 03:28:56;;;;;;;;;;;;;;;;;;2097916;28;20003;-45
2022/05/28 03:29:57;;;;;;;;;;;;;;;;;;2097787;28;20274;-45
2022/05/28 03:30:58;;;;;;;;;;;;;;;;;;2097913;28;19927;-45
2022/05/28 03:31:59;;;;;;;;;;;;;;;;;;2097941;28;19926;-45
2022/05/28 03:33:00;;;;;;;;;;;;;;;;;;2097960;28;20384;-45
2022/05/28 03:34:01;;;;;;;;;;;;;;;;;;2097807;28;20001;-45
2022/05/28 03:35:01;;;;;;;;;;;;;;;;;;2098391;28;20391;-45
2022/05/28 03:36:02;;;;;;;;;;;;;;;;;;2106304;28;19920;-45
2022/05/28 03:37:03;;;;;;;;;;;;;;;;;;2106139;28;19927;-45
2022/05/28 03:38:04;;;;;;;;;;;;;;;;;;2106215;28;19924;-45
2022/05/28 03:39:05;;;;;;;;;;;;;;;;;;2106122;28;19920;-45
2022/05/28 03:40:06;;;;;;;;;;;;;;;;;;2106046;28;19923;-45
2022/05/28 03:41:07;;;;;;;;;;;;;;;;;;2106201;28;19962;-45
2022/05/28 03:42:07;;;;;;;;;;;;;;;;;;2106210;28;19998;-45
2022/05/28 03:43:09;;;;;;;;;;;;;;;;;;2106227;28;19920;-45
2022/05/28 03:44:11;;;;;;;;;;;;;;;;;;2105975;28;20274;-45
2022/05/28 03:45:12;;;;;;;;;;;;;;;;;;2106258;28;19999;-45
2022/05/28 03:46:12;;;;;;;;;;;;;;;;;;2106047;28;19931;-46
2022/05/28 03:47:14;;;;;;;;;;;;;;;;;;2106124;28;20082;-45
2022/05/28 03:48:15;;;;;;;;;;;;;;;;;;2106113;28;19924;-45
2022/05/28 03:49:15;;;;;;;;;;;;;;;;;;2106090;28;20012;-47
2022/05/28 03:50:16;;;;;;;;;;;;;;;;;;2106119;28;20362;-45
2022/05/28 03:51:17;;;;;;;;;;;;;;;;;;2106055;28;19920;-45
2022/05/28 03:52:18;;;;;;;;;;;;;;;;;;2106122;28;20311;-45
2022/05/28 03:53:19;;;;;;;;;;;;;;;;;;2106150;28;19959;-45
2022/05/28 03:54:20;;;;;;;;;;;;;;;;;;2105989;28;19920;-45
2022/05/28 03:55:20;;;;;;;;;;;;;;;;;;2105984;28;19919;-45
2022/05/28 03:56:21;;;;;;;;;;;;;;;;;;2105799;28;19927;-45
2022/05/28 03:57:22;;;;;;;;;;;;;;;;;;2106010;28;20015;-46
2022/05/28 03:58:23;;;;;;;;;;;;;;;;;;2106103;28;20023;-46
2022/05/28 03:59:24;;;;;;;;;;;;;;;;;;2105858;28;19935;-45
2022/05/28 04:00:25;;;;;;;;;;;;;;;;;;2105386;28;19974;-45
2022/05/28 04:01:26;;;;;;;;;;;;;;;;;;2106082;28;20002;-45
2022/05/28 04:02:27;;;;;;;;;;;;;;;;;;2106266;28;19927;-45
2022/05/28 04:03:28;;;;;;;;;;;;;;;;;;2106078;28;19962;-45
2022/05/28 04:04:30;;;;;;;;;;;;;;;;;;2105989;28;19924;-45
2022/05/28 04:05:31;;;;;;;;;;;;;;;;;;2106104;28;20007;-45
2022/05/28 04:06:32;;;;;;;;;;;;;;;;;;2105935;28;19955;-45
2022/05/28 04:07:33;;;;;;;;;;;;;;;;;;2106057;28;20007;-45
2022/05/28 04:08:34;;;;;;;;;;;;;;;;;;2105980;28;19955;-45
2022/05/28 04:09:35;;;;;;;;;;;;;;;;;;2106121;28;20006;-45
2022/05/28 04:10:36;;;;;;;;;;;;;;;;;;2105963;28;19963;-45
2022/05/28 04:11:37;;;;;;;;;;;;;;;;;;2105989;28;20412;-45
2022/05/28 04:12:38;;;;;;;;;;;;;;;;;;2105943;28;19919;-45
2022/05/28 04:13:38;;;;;;;;;;;;;;;;;;2105790;28;19920;-45
2022/05/28 04:14:39;;;;;;;;;;;;;;;;;;2105967;28;20388;-45
2022/05/28 04:15:40;;;;;;;;;;;;;;;;;;2106145;28;20274;-60
2022/05/28 04:16:41;;;;;;;;;;;;;;;;;;2105962;28;20395;-61
2022/05/28 04:17:42;;;;;;;;;;;;;;;;;;2105994;28;19920;-61
2022/05/28 04:18:43;;;;;;;;;;;;;;;;;;2102834;28;19928;-61
2022/05/28 04:19:44;;;;;;;;;;;;;;;;;;2097491;28;19924;-60
2022/05/28 04:20:45;;;;;;;;;;;;;;;;;;2098073;28;19924;-46
2022/05/28 04:21:45;;;;;;;;;;;;;;;;;;2097573;28;20438;-45
2022/05/28 04:22:46;;;;;;;;;;;;;;;;;;2097504;28;20101;-46
2022/05/28 04:23:47;;;;;;;;;;;;;;;;;;2097573;28;20019;-46
2022/05/28 04:24:48;;;;;;;;;;;;;;;;;;2097700;28;19981;-45
2022/05/28 04:25:49;;;;;;;;;;;;;;;;;;2097668;28;19955;-45
2022/05/28 04:26:50;;;;;;;;;;;;;;;;;;2097755;28;20328;-45
2022/05/28 04:27:51;;;;;;;;;;;;;;;;;;2097702;28;19920;-45
2022/05/28 04:28:51;;;;;;;;;;;;;;;;;;2097499;28;19947;-45
2022/05/28 04:29:52;;;;;;;;;;;;;;;;;;2097500;28;20060;-46
2022/05/28 04:30:53;;;;;;;;;;;;;;;;;;2097671;28;19928;-46
2022/05/28 04:31:54;;;;;;;;;;;;;;;;;;2103388;28;20306;-48
2022/05/28 04:32:55;;;;;;;;;;;;;;;;;;2105903;28;20284;-45
2022/05/28 04:33:56;;;;;;;;;;;;;;;;;;2105920;28;19924;-46
2022/05/28 04:34:57;;;;;;;;;;;;;;;;;;2105842;28;19927;-45
2022/05/28 04:35:58;;;;;;;;;;;;;;;;;;2105798;28;19924;-45
2022/05/28 04:36:58;;;;;;;;;;;;;;;;;;2105958;28;19920;-45
2022/05/28 04:37:59;;;;;;;;;;;;;;;;;;2105787;28;20312;-45
2022/05/28 04:39:00;;;;;;;;;;;;;;;;;;2105859;28;20254;-46
2022/05/28 04:40:01;;;;;;;;;;;;;;;;;;2105987;28;19960;-60
2022/05/28 04:41:02;;;;;;;;;;;;;;;;;;2105853;28;20320;-60
2022/05/28 04:42:03;;;;;;;;;;;;;;;;;;2105977;28;19920;-60
2022/05/28 04:43:03;;;;;;;;;;;;;;;;;;2105923;28;19920;-61
2022/05/28 04:44:04;;;;;;;;;;;;;;;;;;2105878;28;20345;-61
2022/05/28 04:45:05;;;;;;;;;;;;;;;;;;2105797;28;19920;-61
2022/05/28 04:46:06;;;;;;;;;;;;;;;;;;2105960;28;19924;-61
2022/05/28 04:47:07;;;;;;;;;;;;;;;;;;2105787;28;19924;-60
2022/05/28 04:48:08;;;;;;;;;;;;;;;;;;2105898;28;20303;-61
2022/05/28 04:49:09;;;;;;;;;;;;;;;;;;2105683;28;20014;-60
2022/05/28 04:50:10;;;;;;;;;;;;;;;;;;2105993;28;19959;-61
2022/05/28 04:51:10;;;;;;;;;;;;;;;;;;2105786;28;19924;-60
2022/05/28 04:52:11;;;;;;;;;;;;;;;;;;2105859;28;19931;-61
2022/05/28 04:53:13;;;;;;;;;;;;;;;;;;2105636;28;20019;-60
2022/05/28 04:54:13;;;;;;;;;;;;;;;;;;2105745;28;19951;-61
2022/05/28 04:55:14;;;;;;;;;;;;;;;;;;2105937;28;19924;-61
2022/05/28 04:56:15;;;;;;;;;;;;;;;;;;2105827;28;19924;-61
2022/05/28 04:57:16;;;;;;;;;;;;;;;;;;2105880;28;20001;-61
2022/05/28 04:58:17;;;;;;;;;;;;;;;;;;2105723;28;19920;-61
2022/05/28 04:59:18;;;;;;;;;;;;;;;;;;2105903;28;20361;-61
2022/05/28 05:00:19;;;;;;;;;;;;;;;;;;2105688;28;19945;-61
2022/05/28 05:01:20;;;;;;;;;;;;;;;;;;2105800;28;19959;-61
2022/05/28 05:02:21;;;;;;;;;;;;;;;;;;2105633;28;19928;-61
2022/05/28 05:03:22;;;;;;;;;;;;;;;;;;2105863;28;19927;-61
2022/05/28 05:04:22;;;;;;;;;;;;;;;;;;2105717;28;20373;-61
2022/05/28 05:05:24;;;;;;;;;;;;;;;;;;2105816;28;20001;-61
2022/05/28 05:06:24;;;;;;;;;;;;;;;;;;2105674;28;20571;-61
2022/05/28 05:07:26;;;;;;;;;;;;;;;;;;2105599;28;20006;-61
2022/05/28 05:08:27;;;;;;;;;;;;;;;;;;2105774;28;19998;-61
2022/05/28 05:09:28;;;;;;;;;;;;;;;;;;2105639;28;20011;-61
2022/05/28 05:10:29;;;;;;;;;;;;;;;;;;2105609;28;19920;-61
2022/05/28 05:11:30;;;;;;;;;;;;;;;;;;2105692;28;19923;-61
2022/05/28 05:12:31;;;;;;;;;;;;;;;;;;2106045;28;19920;-61
2022/05/28 05:13:32;;;;;;;;;;;;;;;;;;2107012;28;19920;-61
2022/05/28 05:14:32;;;;;;;;;;;;;;;;;;2107107;28;19920;-61
2022/05/28 05:15:33;;;;;;;;;;;;;;;;;;2107059;28;19959;-61
2022/05/28 05:16:34;;;;;;;;;;;;;;;;;;2107179;28;20050;-61
2022/05/28 05:17:35;;;;;;;;;;;;;;;;;;2107047;28;19920;-61
2022/05/28 05:18:36;;;;;;;;;;;;;;;;;;2104816;28;20405;-61
2022/05/28 05:19:37;;;;;;;;;;;;;;;;;;2098648;28;19924;-61
2022/05/28 05:20:41;;;;;;;;;;;;;;;;;;2098675;28;19920;-61
2022/05/28 05:21:42;;;;;;;;;;;;;;;;;;2098792;28;20282;-61
2022/05/28 05:22:42;;;;;;;;;;;;;;;;;;2098770;28;20577;-61
2022/05/28 05:23:43;;;;;;;;;;;;;;;;;;2098758;28;19927;-61
2022/05/28 05:24:44;;;;;;;;;;;;;;;;;;2098602;28;19927;-61
2022/05/28 05:25:45;;;;;;;;;;;;;;;;;;2098732;28;19927;-61
2022/05/28 05:26:46;;;;;;;;;;;;;;;;;;2098620;28;20289;-61
2022/05/28 05:27:47;;;;;;;;;;;;;;;;;;2101486;28;19978;-61
2022/05/28 05:28:47;;;;;;;;;;;;;;;;;;2107006;28;20007;-60
2022/05/28 05:29:48;;;;;;;;;;;;;;;;;;2106977;28;19927;-61
2022/05/28 05:30:49;;;;;;;;;;;;;;;;;;2107076;28;20006;-61
2022/05/28 05:31:50;;;;;;;;;;;;;;;;;;2107099;28;20076;-61
2022/05/28 05:32:51;;;;;;;;;;;;;;;;;;2107176;28;19977;-46
2022/05/28 05:33:52;;;;;;;;;;;;;;;;;;2106815;28;19935;-46
2022/05/28 05:34:53;;;;;;;;;;;;;;;;;;2106817;28;19927;-46
2022/05/28 05:35:54;;;;;;;;;;;;;;;;;;2106833;28;20361;-45
2022/05/28 05:36:54;;;;;;;;;;;;;;;;;;2107170;28;19927;-46
2022/05/28 05:37:56;;;;;;;;;;;;;;;;;;2101574;28;19943;-46
2022/05/28 05:38:56;;;;;;;;;;;;;;;;;;2098402;28;20011;-46
2022/05/28 05:39:57;;;;;;;;;;;;;;;;;;2098705;28;19927;-46
2022/05/28 05:40:58;;;;;;;;;;;;;;;;;;2098459;28;19920;-46
2022/05/28 05:41:59;;;;;;;;;;;;;;;;;;2098486;28;19950;-46
2022/05/28 05:43:00;;;;;;;;;;;;;;;;;;2098566;28;19920;-46
2022/05/28 05:44:01;;;;;;;;;;;;;;;;;;2098437;28;19925;-46
2022/05/28 05:45:01;;;;;;;;;;;;;;;;;;2098599;28;19927;-46
2022/05/28 05:46:03;;;;;;;;;;;;;;;;;;2098579;28;20267;-46
2022/05/28 05:47:03;;;;;;;;;;;;;;;;;;2098429;28;20385;-46
2022/05/28 05:48:04;;;;;;;;;;;;;;;;;;2098557;28;19955;-46
2022/05/28 05:49:05;;;;;;;;;;;;;;;;;;2100637;28;19956;-45
2022/05/28 05:50:06;;;;;;;;;;;;;;;;;;2106779;28;19969;-46
2022/05/28 05:51:07;;;;;;;;;;;;;;;;;;2106908;28;19920;-46
2022/05/28 05:52:08;;;;;;;;;;;;;;;;;;2106986;28;19955;-61
2022/05/28 05:53:08;;;;;;;;;;;;;;;;;;2107018;28;19920;-45
2022/05/28 05:54:10;;;;;;;;;;;;;;;;;;2106723;28;19966;-46
2022/05/28 05:55:10;;;;;;;;;;;;;;;;;;2106879;28;19994;-46
2022/05/28 05:56:11;;;;;;;;;;;;;;;;;;2106908;28;20361;-46
2022/05/28 05:57:13;;;;;;;;;;;;;;;;;;2106935;28;19927;-46
2022/05/28 05:58:14;;;;;;;;;;;;;;;;;;2107214;28;20357;-46
2022/05/28 05:59:14;;;;;;;;;;;;;;;;;;2106662;28;20011;-46
2022/05/28 06:00:15;;;;;;;;;;;;;;;;;;2106715;28;19974;-46
2022/05/28 06:01:16;;;;;;;;;;;;;;;;;;2106718;28;19964;-46
2022/05/28 06:02:17;;;;;;;;;;;;;;;;;;2106880;28;20284;-46
2022/05/28 06:03:18;;;;;;;;;;;;;;;;;;2106716;28;19927;-46
2022/05/28 06:04:19;;;;;;;;;;;;;;;;;;2106861;28;19942;-46
2022/05/28 06:05:20;;;;;;;;;;;;;;;;;;2106760;28;19952;-46
2022/05/28 06:06:21;;;;;;;;;;;;;;;;;;2106882;28;19951;-46
2022/05/28 06:07:21;;;;;;;;;;;;;;;;;;2106842;28;19920;-46
2022/05/28 06:08:22;;;;;;;;;;;;;;;;;;2106735;28;19919;-47
2022/05/28 06:09:23;;;;;;;;;;;;;;;;;;2106705;28;20434;-47
2022/05/28 06:10:24;;;;;;;;;;;;;;;;;;2106856;28;19969;-46
2022/05/28 06:11:25;;;;;;;;;;;;;;;;;;2106964;28;19924;-46
2022/05/28 06:12:26;;;;;;;;;;;;;;;;;;2106719;28;20004;-46
2022/05/28 06:13:27;;;;;;;;;;;;;;;;;;2106841;28;20323;-46
2022/05/28 06:14:28;;;;;;;;;;;;;;;;;;2106650;28;20166;-48
2022/05/28 06:15:28;;;;;;;;;;;;;;;;;;2106818;28;20007;-46
2022/05/28 06:16:29;;;;;;;;;;;;;;;;;;2106969;28;19997;-60
2022/05/28 06:17:31;;;;;;;;;;;;;;;;;;2106828;28;19923;-61
2022/05/28 06:18:32;;;;;;;;;;;;;;;;;;2105185;28;19920;-61
2022/05/28 06:19:33;;;;;;;;;;;;;;;;;;2098219;28;20401;-62
2022/05/28 06:20:34;;;;;;;;;;;;;;;;;;2098358;28;19963;-61
2022/05/28 06:21:35;;;;;;;;;;;;;;;;;;2098238;28;20031;-61
2022/05/28 06:22:36;;;;;;;;;;;;;;;;;;2098291;28;20296;-61
2022/05/28 06:23:37;;;;;;;;;;;;;;;;;;2097663;28;19928;-61
2022/05/28 06:24:38;;;;;;;;;;;;;;;;;;2106342;28;20006;-61
2022/05/28 06:25:39;;;;;;;;;;;;;;;;;;2106597;28;20376;-61
2022/05/28 06:26:40;;;;;;;;;;;;;;;;;;2106976;28;20336;-61
2022/05/28 06:27:40;;;;;;;;;;;;;;;;;;2106939;28;20010;-61
2022/05/28 06:28:41;;;;;;;;;;;;;;;;;;2106480;28;19931;-61
2022/05/28 06:29:42;;;;;;;;;;;;;;;;;;2106736;28;19963;-61
2022/05/28 06:30:44;;;;;;;;;;;;;;;;;;2106589;28;20296;-61
2022/05/28 06:31:45;;;;;;;;;;;;;;;;;;2106590;28;19924;-62
2022/05/28 06:32:46;;;;;;;;;;;;;;;;;;2106590;28;20022;-61
2022/05/28 06:33:47;;;;;;;;;;;;;;;;;;2106633;28;20060;-61
2022/05/28 06:34:48;;;;;;;;;;;;;;;;;;2106484;28;20372;-62
2022/05/28 06:35:49;;;;;;;;;;;;;;;;;;2106670;28;19951;-62
2022/05/28 06:36:50;;;;;;;;;;;;;;;;;;2106614;28;19927;-61
2022/05/28 06:37:52;;;;;;;;;;;;;;;;;;2106548;28;19924;-62
2022/05/28 06:38:53;;;;;;;;;;;;;;;;;;2106628;28;20417;-46
2022/05/28 06:39:54;;;;;;;;;;;;;;;;;;2106559;28;19919;-47
2022/05/28 06:40:54;;;;;;;;;;;;;;;;;;2106663;28;19943;-46
2022/05/28 06:41:55;;;;;;;;;;;;;;;;;;2106539;28;20040;-46
2022/05/28 06:42:56;;;;;;;;;;;;;;;;;;2106780;28;20019;-48
2022/05/28 06:43:57;;;;;;;;;;;;;;;;;;2106429;28;19923;-47
2022/05/28 06:44:59;;;;;;;;;;;;;;;;;;2106316;28;20326;-46
2022/05/28 06:46:00;;;;;;;;;;;;;;;;;;2106543;28;20330;-47
2022/05/28 06:47:03;;;;;;;;;;;;;;;;;;2106508;28;19920;-47
2022/05/28 06:48:04;;;;;;;;;;;;;;;;;;2106584;28;19926;-47
2022/05/28 06:49:04;;;;;;;;;;;;;;;;;;2106428;28;19920;-46
2022/05/28 06:51:25;;;;;;;;;;;;;;;;;;2106595;28;19931;-47
2022/05/28 06:52:25;;;;;;;;;;;;;;;;;;2106391;28;19920;-47
2022/05/28 06:53:26;;;;;;;;;;;;;;;;;;2106442;28;19920;-49
2022/05/28 06:54:27;;;;;;;;;;;;;;;;;;2106386;28;19920;-47
2022/05/28 06:55:28;;;;;;;;;;;;;;;;;;2106360;28;19960;-48
2022/05/28 06:56:29;;;;;;;;;;;;;;;;;;2106635;28;20309;-62
2022/05/28 06:57:30;;;;;;;;;;;;;;;;;;2106581;28;20048;-46
2022/05/28 06:58:31;;;;;;;;;;;;;;;;;;2106543;28;20007;-47
2022/05/28 06:59:32;;;;;;;;;;;;;;;;;;2106782;28;20331;-62